CheckWX is a tool to help pilots better visualize weather data.  It is not intended as a substitute for an official pre-flight weather briefing.

12:26:46 UTC

KORH TAF
Worcester Regional Airport
Worcester, Massachusetts, USA
KORH 221123Z 2212/2312 03010G20KT 5SM -RA BR OVC005 WS020/06035KT FM221500 31010G21KT 6SM -SHRA BR OVC010 FM222300 29012KT P6SM VCSH BKN020 FM230200 29012G22KT 3SM -SHSN OVC010 FM230800 29016G29KT P6SM OVC030

Mar-22@
12:00 UTC

Mar-22 @ 12:00 UTC

Mar-22@
15:00 UTC

Mar-22 @ 15:00 UTC

KORH 221123Z 2212/2312 03010G20KT 5SM -RA BR OVC005 WS020/06035KT
Wind
  • 030° at 10 KTS
  • {Gusting to 20 KTS
Conditions
Light Rain, Mist
Cloud Levels
  • Overcast at 500' AGL

Mar-22@
15:00 UTC

Mar-22 @ 15:00 UTC

Mar-22@
23:00 UTC

Mar-22 @ 23:00 UTC

FM221500 31010G21KT 6SM -SHRA BR OVC010

From

From Standard forecast or significant change

Wind
  • 310° at 10 KTS
  • {Gusting to 21 KTS
Conditions
Light Rain, Mist
Cloud Levels
  • Overcast at 1,000' AGL

Mar-22@
23:00 UTC

Mar-22 @ 23:00 UTC

Mar-23@
02:00 UTC

Mar-23 @ 02:00 UTC

FM222300 29012KT P6SM VCSH BKN020

From

From Standard forecast or significant change

Wind
  • 290° at 12 KTS
Cloud Levels
  • Broken at 2,000' AGL

Mar-23@
02:00 UTC

Mar-23 @ 02:00 UTC

Mar-23@
08:00 UTC

Mar-23 @ 08:00 UTC

FM230200 29012G22KT 3SM -SHSN OVC010

From

From Standard forecast or significant change

Wind
  • 290° at 12 KTS
  • {Gusting to 22 KTS
Conditions
Light Snow
Cloud Levels
  • Overcast at 1,000' AGL

Mar-23@
08:00 UTC

Mar-23 @ 08:00 UTC

Mar-23@
12:00 UTC

Mar-23 @ 12:00 UTC

FM230800 29016G29KT P6SM OVC030

From

From Standard forecast or significant change

Wind
  • 290° at 16 KTS
  • {Gusting to 29 KTS
Cloud Levels
  • Overcast at 3,000' AGL